Time;durP1;ratioP1;P1;durP2;ratioP2;P2;SDS_P1;SDS_P2;PMS_P1;PMS_P2;Temp;Humidity;BMP_temperature;BMP_pressure;BME280_temperature;BME280_humidity;BME280_pressure;Samples;Min_cycle;Max_cycle;Signal;HPM_P1;HPM_P2
2022/03/05 07:59:08;;;;;;;46.83;26.00;;;;;;;1.76;69.35;101941.28;5279292;28;20398;-76
2022/03/05 08:01:39;;;;;;;46.13;26.40;;;;;;;1.73;70.61;101947.16;5280429;28;20033;-68
2022/03/05 08:04:11;;;;;;;43.60;26.02;;;;;;;1.83;70.38;101949.50;5264369;28;20035;-76
2022/03/05 08:06:43;;;;;;;79.22;30.75;;;;;;;1.85;69.88;101955.63;5258430;28;20021;-76
2022/03/05 08:09:14;;;;;;;52.20;27.58;;;;;;;1.93;69.55;101964.50;5258964;28;20032;-76
2022/03/05 08:11:45;;;;;;;47.30;25.83;;;;;;;1.90;69.78;101962.16;5258760;28;20401;-73
2022/03/05 08:14:16;;;;;;;48.17;26.73;;;;;;;2.10;70.20;101967.72;5267496;28;20021;-76
2022/03/05 08:16:48;;;;;;;44.90;24.20;;;;;;;2.28;69.38;101966.28;5275351;28;20036;-78
2022/03/05 08:19:19;;;;;;;44.58;25.10;;;;;;;2.29;68.99;101974.28;5257929;28;20086;-83
2022/03/05 08:21:50;;;;;;;47.67;26.67;;;;;;;2.43;68.61;101969.69;5280004;28;20463;-82
2022/03/05 08:24:22;;;;;;;47.47;25.27;;;;;;;2.48;68.64;101972.66;5264212;28;20155;-87
2022/03/05 08:26:53;;;;;;;47.35;28.25;;;;;;;2.58;68.42;101967.59;5270811;28;20043;-83
2022/03/05 08:29:24;;;;;;;46.40;26.95;;;;;;;2.57;67.49;101974.13;5280010;28;20098;-86
2022/03/05 08:31:56;;;;;;;41.80;25.30;;;;;;;2.73;68.03;101969.28;5270384;28;20104;-84
2022/03/05 08:34:27;;;;;;;42.05;25.98;;;;;;;2.90;67.97;101975.19;5271362;28;20017;-78
2022/03/05 08:36:58;;;;;;;45.67;24.27;;;;;;;2.84;67.05;101971.41;5269729;28;20083;-77
2022/03/05 08:39:30;;;;;;;42.15;26.50;;;;;;;2.97;66.42;101974.13;5258262;28;20373;-77
2022/03/05 08:42:01;;;;;;;43.75;25.15;;;;;;;2.99;66.15;101979.38;5258296;28;20021;-77
2022/03/05 08:44:33;;;;;;;42.38;23.75;;;;;;;3.02;66.54;101973.50;5258486;28;20021;-76
2022/03/05 08:47:04;;;;;;;42.40;24.63;;;;;;;3.08;65.60;101977.28;5257422;28;20033;-75
2022/03/05 08:49:41;;;;;;;42.22;27.25;;;;;;;3.18;66.20;101975.81;5258489;28;20052;-76
2022/03/05 08:52:13;;;;;;;45.75;26.73;;;;;;;3.20;66.09;101976.44;5258607;28;20441;-73
2022/03/05 08:54:44;;;;;;;43.03;23.92;;;;;;;3.41;67.11;101977.25;5269395;28;20070;-77
2022/03/05 08:57:16;;;;;;;46.30;26.45;;;;;;;3.32;65.42;101973.88;5267350;28;20044;-79
2022/03/05 08:59:47;;;;;;;41.53;24.23;;;;;;;3.29;65.48;101976.22;5278045;28;20138;-76
2022/03/05 09:02:18;;;;;;;40.33;22.90;;;;;;;3.22;64.88;101976.19;5258385;28;20017;-77
2022/03/05 09:04:50;;;;;;;40.50;24.63;;;;;;;3.39;64.88;101974.69;5271283;28;20024;-78
2022/03/05 09:07:21;;;;;;;39.67;24.05;;;;;;;3.47;64.32;101981.84;5278488;28;20040;-78
2022/03/05 09:09:52;;;;;;;40.88;24.67;;;;;;;3.60;64.07;101972.75;5250897;28;20040;-74
2022/03/05 09:12:24;;;;;;;46.22;26.25;;;;;;;3.63;63.04;101978.66;5261123;28;20033;-70
2022/03/05 09:14:55;;;;;;;43.97;25.33;;;;;;;3.72;63.05;101978.41;5264847;28;20025;-71
2022/03/05 09:17:26;;;;;;;55.60;32.75;;;;;;;3.82;63.69;101971.41;5260955;28;20115;-71
2022/03/05 09:19:59;;;;;;;39.35;23.75;;;;;;;3.92;63.04;101979.19;5252248;28;20365;-71
2022/03/05 09:22:30;;;;;;;40.78;24.67;;;;;;;4.02;62.40;101978.72;5243323;28;20036;-72
2022/03/05 09:25:02;;;;;;;41.20;25.25;;;;;;;4.05;61.79;101973.63;5243879;28;20033;-71
2022/03/05 09:27:33;;;;;;;36.40;20.52;;;;;;;4.56;68.24;101963.63;5253048;28;20029;-76
2022/03/05 09:30:06;;;;;;;42.75;25.98;;;;;;;4.23;62.95;101964.66;5258761;28;20028;-74
2022/03/05 09:32:38;;;;;;;43.25;24.13;;;;;;;4.26;61.56;101964.22;5252287;28;20089;-76
2022/03/05 09:35:09;;;;;;;49.15;31.08;;;;;;;4.21;61.22;101966.78;5253630;28;20496;-73
2022/03/05 09:37:41;;;;;;;41.45;24.98;;;;;;;4.31;60.59;101958.91;5242845;28;20476;-74
2022/03/05 09:40:12;;;;;;;45.58;25.75;;;;;;;4.33;60.45;101959.53;5243892;28;20026;-74
2022/03/05 09:42:45;;;;;;;49.45;28.30;;;;;;;4.52;60.48;101962.34;5243852;28;20033;-74
2022/03/05 09:45:16;;;;;;;43.85;25.80;;;;;;;4.51;60.62;101958.78;5250441;28;20106;-74
2022/03/05 09:47:48;;;;;;;43.00;25.38;;;;;;;4.52;59.36;101962.34;5256191;28;20041;-72
2022/03/05 09:50:19;;;;;;;43.33;25.60;;;;;;;4.50;59.37;101967.22;5257943;28;20032;-72
2022/03/05 09:52:51;;;;;;;42.95;24.58;;;;;;;4.54;59.99;101965.72;5247990;28;20037;-72
2022/03/05 09:55:22;;;;;;;37.20;24.38;;;;;;;4.76;59.27;101961.56;5243139;28;20025;-71
2022/03/05 09:57:53;;;;;;;38.78;25.38;;;;;;;4.66;58.29;101966.72;5242113;28;20053;-71
2022/03/05 10:00:25;;;;;;;42.90;26.35;;;;;;;4.82;58.99;101961.72;5243178;28;20034;-74
2022/03/05 10:02:59;;;;;;;40.28;25.67;;;;;;;4.87;58.48;101956.41;5243819;28;20026;-74
2022/03/05 10:05:31;;;;;;;44.08;26.02;;;;;;;4.91;57.91;101958.47;5247557;28;20025;-74
2022/03/05 10:08:20;;;;;;;37.83;23.45;;;;;;;4.88;58.83;101972.66;5242772;28;20056;-74
2022/03/05 10:11:01;;;;;;;37.45;24.92;;;;;;;5.10;57.10;101964.84;5242881;28;20037;-77
2022/03/05 10:13:33;;;;;;;39.33;24.67;;;;;;;5.26;56.99;101962.59;5243141;28;20021;-76
2022/03/05 10:16:06;;;;;;;40.25;23.83;;;;;;;5.47;59.44;101962.16;5243403;28;20032;-75
2022/03/05 10:18:39;;;;;;;39.65;23.65;;;;;;;5.45;56.79;101961.53;5244055;28;20029;-77
2022/03/05 10:21:11;;;;;;;37.10;23.27;;;;;;;5.51;56.03;101962.53;5262562;28;20028;-77
2022/03/05 10:23:47;;;;;;;33.25;23.27;;;;;;;5.60;55.46;101959.25;5263674;28;20012;-77
2022/03/05 10:26:22;;;;;;;38.92;23.65;;;;;;;5.63;55.40;101950.53;5251416;28;20384;-77
2022/03/05 10:28:53;;;;;;;46.65;26.17;;;;;;;5.78;54.51;101961.16;5242718;28;20029;-76
2022/03/05 10:31:24;;;;;;;45.63;24.33;;;;;;;5.87;54.63;101950.66;5242498;28;20030;-78
2022/03/05 10:33:56;;;;;;;36.58;22.75;;;;;;;5.75;52.51;101955.25;5242262;28;20051;-78
2022/03/05 10:36:28;;;;;;;36.65;22.38;;;;;;;5.85;53.06;101956.44;5259164;28;20029;-78
2022/03/05 10:39:04;;;;;;;34.63;22.77;;;;;;;5.89;51.14;101960.38;5262881;28;20028;-75
2022/03/05 10:41:38;;;;;;;37.05;24.52;;;;;;;6.04;53.22;101962.75;5254061;28;20048;-76
2022/03/05 10:44:15;;;;;;;36.25;23.52;;;;;;;6.04;52.42;101961.94;5244153;28;20029;-78
2022/03/05 10:46:53;;;;;;;38.20;23.50;;;;;;;6.07;51.69;101958.72;5242182;28;20100;-79
2022/03/05 10:49:33;;;;;;;35.88;22.42;;;;;;;6.06;51.71;101955.13;5245699;28;20042;-77
2022/03/05 10:52:07;;;;;;;35.03;23.33;;;;;;;6.19;52.38;101962.34;5241742;28;20087;-80
2022/03/05 10:54:41;;;;;;;64.25;42.45;;;;;;;6.27;52.70;101958.44;5242493;28;20033;-79
2022/03/05 10:57:14;;;;;;;35.28;23.23;;;;;;;6.21;52.35;101962.09;5247801;28;20182;-77
2022/03/05 10:59:50;;;;;;;36.72;24.25;;;;;;;6.22;52.20;101963.81;5255969;28;20033;-79
2022/03/05 11:02:23;;;;;;;74.60;47.30;;;;;;;6.40;53.00;101962.91;5241334;28;20400;-78
2022/03/05 11:04:56;;;;;;;37.33;25.55;;;;;;;6.50;52.71;101958.50;5241894;28;20040;-77
2022/03/05 11:07:28;;;;;;;38.83;24.35;;;;;;;6.62;52.03;101954.94;5254241;28;20035;-80
2022/03/05 11:10:01;;;;;;;36.47;23.30;;;;;;;6.73;51.57;101963.25;5247389;28;20089;-80
2022/03/05 11:12:37;;;;;;;35.28;24.98;;;;;;;6.75;50.79;101957.50;5262529;28;20029;-80
2022/03/05 11:15:09;;;;;;;32.60;23.45;;;;;;;6.80;49.86;101956.75;5245026;28;20037;-79
2022/03/05 11:17:40;;;;;;;39.95;25.17;;;;;;;7.08;51.81;101959.69;5246257;28;20025;-78
2022/03/05 11:20:13;;;;;;;35.35;23.88;;;;;;;6.99;49.28;101954.75;5253383;28;20384;-71
2022/03/05 11:22:49;;;;;;;41.90;25.02;;;;;;;7.13;49.26;101956.19;5260849;28;20052;-79
2022/03/05 11:25:24;;;;;;;80.32;52.95;;;;;;;7.17;48.37;101952.72;5240777;28;20025;-78
2022/03/05 11:28:04;;;;;;;35.22;24.75;;;;;;;7.26;48.33;101950.47;5241711;28;20025;-75
2022/03/05 11:30:44;;;;;;;33.45;23.52;;;;;;;7.24;48.55;101952.59;5240389;28;20030;-77
2022/03/05 11:33:35;;;;;;;35.63;24.20;;;;;;;7.39;48.25;101950.19;5242028;28;20029;-79
2022/03/05 11:36:32;;;;;;;41.05;24.85;;;;;;;7.17;47.83;101943.59;5242426;28;20036;-79
2022/03/05 11:39:17;;;;;;;38.30;24.27;;;;;;;7.37;48.03;101952.34;5253438;28;20488;-77
2022/03/05 11:41:57;;;;;;;35.58;24.30;;;;;;;7.49;48.01;101954.25;5257377;28;20051;-77
2022/03/05 11:44:36;;;;;;;31.55;22.65;;;;;;;7.50;47.64;101936.63;5256841;28;20041;-78
2022/03/05 11:47:19;;;;;;;39.20;24.17;;;;;;;7.50;47.01;101939.38;5262202;28;20086;-77
2022/03/05 11:49:58;;;;;;;31.98;23.02;;;;;;;7.67;47.39;101940.31;5261534;28;20028;-77
2022/03/05 11:52:38;;;;;;;36.58;24.92;;;;;;;7.82;47.33;101937.88;5241761;28;20025;-83
2022/03/05 11:55:18;;;;;;;37.63;24.77;;;;;;;7.81;46.83;101938.94;5242223;28;20036;-82
2022/03/05 11:57:49;;;;;;;32.25;22.95;;;;;;;7.98;46.58;101936.25;5270742;28;20124;-82
2022/03/05 12:00:25;;;;;;;34.20;23.53;;;;;;;8.07;46.76;101944.97;5261942;28;20105;-79
2022/03/05 12:03:00;;;;;;;;;;;;;;;8.24;47.26;101932.06;5241831;28;20375;-81
2022/03/05 12:05:44;;;;;;;32.83;22.48;;;;;;;8.07;46.20;101931.16;5241266;28;19916;-80
2022/03/05 12:08:21;;;;;;;36.33;25.45;;;;;;;8.27;46.57;101926.03;5241989;28;20036;-81
2022/03/05 12:11:10;;;;;;;35.00;25.42;;;;;;;8.37;46.42;101930.09;5240871;28;20362;-80
2022/03/05 12:13:54;;;;;;;35.88;26.45;;;;;;;8.43;46.70;101926.34;5241272;28;20444;-78
2022/03/05 12:16:28;;;;;;;37.35;23.58;;;;;;;8.44;46.08;101928.03;5246540;28;20507;-85
2022/03/05 12:18:59;;;;;;;34.03;25.10;;;;;;;8.41;45.82;101923.84;5256306;28;20033;-85
2022/03/05 12:21:34;;;;;;;37.58;25.40;;;;;;;8.59;46.00;101931.06;5244595;28;20029;-86
2022/03/05 12:24:09;;;;;;;38.27;25.37;;;;;;;8.62;45.57;101925.03;5244532;28;20453;-89
2022/03/05 12:26:43;;;;;;;34.88;23.67;;;;;;;8.79;45.78;101926.97;5243107;28;20280;-83
2022/03/05 12:29:15;;;;;;;36.23;26.30;;;;;;;8.89;44.90;101918.81;5243539;28;20029;-86
2022/03/05 12:31:49;;;;;;;36.25;24.92;;;;;;;8.86;44.50;101913.81;5242460;28;20101;-88
2022/03/05 12:34:25;;;;;;;38.97;26.42;;;;;;;8.95;44.38;101916.97;5246393;28;20032;-90
2022/03/05 12:36:56;;;;;;;38.80;26.55;;;;;;;9.12;43.82;101912.25;5247958;28;20365;-85
2022/03/05 12:39:28;;;;;;;34.90;25.88;;;;;;;9.06;44.35;101914.13;5254054;28;20132;-78
2022/03/05 12:42:03;;;;;;;36.88;25.95;;;;;;;9.35;45.14;101912.03;5253632;28;20041;-79
2022/03/05 12:44:36;;;;;;;35.28;24.27;;;;;;;9.44;44.34;101903.31;5249426;28;20465;-77
2022/03/05 12:47:07;;;;;;;40.08;26.45;;;;;;;9.31;42.80;101907.28;5263541;28;20388;-76
2022/03/05 12:49:39;;;;;;;35.47;24.67;;;;;;;9.41;43.00;101901.91;5244757;28;20036;-79
2022/03/05 12:52:16;;;;;;;33.67;24.42;;;;;;;9.72;44.07;101911.44;5250509;28;20483;-77
2022/03/05 12:54:53;;;;;;;36.53;25.08;;;;;;;9.78;43.36;101909.56;5264400;28;20444;-78
2022/03/05 12:57:25;;;;;;;38.42;24.45;;;;;;;9.88;43.39;101909.69;5262836;28;20044;-76
2022/03/05 13:00:04;;;;;;;37.60;25.63;;;;;;;9.88;42.53;101909.69;5261024;28;20043;-77
2022/03/05 13:02:35;;;;;;;35.67;23.75;;;;;;;10.03;42.50;101900.72;5264807;28;20123;-77
2022/03/05 13:05:14;;;;;;;38.30;25.38;;;;;;;10.12;42.73;101903.84;5258192;28;20555;-78
2022/03/05 13:07:46;;;;;;;33.50;24.33;;;;;;;9.99;41.99;101896.78;5257502;28;20029;-77
2022/03/05 13:10:17;;;;;;;42.53;32.33;;;;;;;9.98;42.11;101895.94;5249222;28;20503;-75
2022/03/05 13:12:52;;;;;;;39.63;27.48;;;;;;;10.23;41.98;101891.78;5243828;28;20036;-75
2022/03/05 13:15:32;;;;;;;32.83;24.10;;;;;;;10.32;42.76;101890.22;5247953;28;20353;-72
2022/03/05 13:18:15;;;;;;;42.53;27.73;;;;;;;10.24;41.91;101883.19;5255995;28;20035;-76
2022/03/05 13:20:47;;;;;;;36.33;26.75;;;;;;;10.40;40.80;101889.72;5263977;28;20025;-78
2022/03/05 13:23:20;;;;;;;36.60;25.30;;;;;;;10.51;41.17;101887.91;5264477;28;20380;-76
2022/03/05 13:25:52;;;;;;;34.45;25.80;;;;;;;10.44;41.13;101890.06;5261032;28;20029;-76
2022/03/05 13:28:28;;;;;;;35.88;25.45;;;;;;;10.54;41.43;101892.09;5250816;28;20035;-78
2022/03/05 13:31:01;;;;;;;35.08;26.25;;;;;;;10.55;40.73;101885.44;5266229;28;20104;-73
2022/03/05 13:33:37;;;;;;;36.83;25.83;;;;;;;10.54;40.24;101889.31;5259376;28;20091;-79
2022/03/05 13:36:23;;;;;;;36.55;23.40;;;;;;;10.86;40.99;101887.38;5252773;28;20033;-77
2022/03/05 13:38:57;;;;;;;37.45;24.88;;;;;;;10.96;40.71;101875.47;5249261;28;20468;-82
2022/03/05 13:41:30;;;;;;;36.67;26.60;;;;;;;10.98;40.92;101883.56;5271506;28;20025;-81
2022/03/05 13:44:01;;;;;;;37.85;26.45;;;;;;;11.10;41.83;101887.78;5256349;28;20036;-76
2022/03/05 13:46:33;;;;;;;35.80;26.05;;;;;;;11.05;40.05;101879.44;5243619;28;20025;-76
2022/03/05 13:49:05;;;;;;;36.42;25.67;;;;;;;11.24;40.24;101882.59;5244051;28;20546;-76
2022/03/05 13:51:36;;;;;;;36.13;25.08;;;;;;;11.35;40.98;101880.72;5242837;28;20026;-76
2022/03/05 13:54:08;;;;;;;37.45;26.15;;;;;;;11.37;40.54;101886.00;5243673;28;20061;-70
2022/03/05 13:56:45;;;;;;;36.08;26.23;;;;;;;11.44;39.81;101886.59;5242432;28;20384;-75
2022/03/05 13:59:21;;;;;;;39.65;25.13;;;;;;;11.21;39.57;101891.47;5254673;28;20383;-71
2022/03/05 14:01:54;;;;;;;36.13;24.77;;;;;;;11.25;39.46;101881.50;5261230;28;20040;-71
2022/03/05 14:04:25;;;;;;;40.92;28.23;;;;;;;11.36;40.09;101879.63;5257685;28;20025;-71
2022/03/05 14:06:59;;;;;;;37.35;25.17;;;;;;;11.40;38.76;101877.97;5256258;28;20040;-71
2022/03/05 14:09:34;;;;;;;35.25;24.73;;;;;;;11.47;38.30;101866.59;5242621;28;20112;-71
2022/03/05 14:12:25;;;;;;;38.08;28.95;;;;;;;11.56;39.83;101867.78;5245289;28;20473;-70
2022/03/05 14:15:03;;;;;;;42.85;30.60;;;;;;;11.56;40.46;101869.72;5263546;28;20033;-75
2022/03/05 14:17:41;;;;;;;35.55;25.42;;;;;;;11.60;38.73;101868.88;5252743;28;20084;-76
2022/03/05 14:20:20;;;;;;;32.53;24.15;;;;;;;11.69;44.96;101860.88;5243049;28;20032;-74
2022/03/05 14:23:03;;;;;;;31.30;22.60;;;;;;;11.65;41.66;101860.56;5243644;28;20032;-81
2022/03/05 14:25:37;;;;;;;32.58;24.58;;;;;;;11.47;39.29;101861.88;5242589;28;20064;-81
2022/03/05 14:28:17;;;;;;;46.22;33.83;;;;;;;11.44;38.90;101858.81;5246627;28;20061;-75
2022/03/05 14:30:49;;;;;;;32.30;24.92;;;;;;;11.61;39.68;101867.78;5242915;28;20025;-81
2022/03/05 14:33:21;;;;;;;35.42;25.05;;;;;;;11.58;40.01;101860.00;5242967;28;20028;-81
2022/03/05 14:35:53;;;;;;;34.60;26.42;;;;;;;11.68;38.64;101859.19;5251919;28;20059;-80
2022/03/05 14:38:24;;;;;;;30.42;23.27;;;;;;;11.63;39.89;101868.34;5254177;28;20104;-81
2022/03/05 14:40:55;;;;;;;33.92;24.88;;;;;;;11.66;38.29;101861.41;5242800;28;20487;-76
2022/03/05 14:43:26;;;;;;;33.17;23.55;;;;;;;11.70;37.41;101857.81;5257146;28;20048;-77
2022/03/05 14:46:03;;;;;;;32.78;23.50;;;;;;;11.77;38.34;101857.56;5242659;28;20102;-79
2022/03/05 14:48:34;;;;;;;36.65;25.02;;;;;;;11.78;38.05;101859.22;5253164;28;20036;-83
2022/03/05 14:51:05;;;;;;;32.45;22.65;;;;;;;11.94;40.95;101860.16;5243321;28;20017;-82
2022/03/05 14:53:36;;;;;;;36.22;23.60;;;;;;;11.85;38.15;101854.25;5241183;28;20445;-81
2022/03/05 14:56:08;;;;;;;33.45;23.15;;;;;;;11.77;39.74;101859.50;5256627;28;20408;-79
2022/03/05 14:58:39;;;;;;;34.55;25.73;;;;;;;11.85;37.81;101859.78;5249917;28;20456;-79
2022/03/05 15:01:11;;;;;;;50.22;37.00;;;;;;;11.78;38.21;101858.38;5249437;28;20025;-79
2022/03/05 15:03:42;;;;;;;36.55;26.92;;;;;;;11.87;39.98;101863.19;5242220;28;20076;-79
2022/03/05 15:06:14;;;;;;;35.20;23.33;;;;;;;12.06;42.34;101866.28;5245123;28;20050;-78
2022/03/05 15:08:45;;;;;;;36.15;25.95;;;;;;;11.96;39.06;101866.25;5243115;28;20441;-79
2022/03/05 15:11:17;;;;;;;34.53;26.58;;;;;;;11.96;39.48;101867.09;5242060;28;20029;-77
2022/03/05 15:13:48;;;;;;;35.85;24.83;;;;;;;12.01;40.69;101863.47;5241119;28;20076;-77
2022/03/05 15:16:19;;;;;;;41.15;28.10;;;;;;;11.88;40.01;101864.84;5259770;28;20373;-74
2022/03/05 15:18:51;;;;;;;41.42;27.67;;;;;;;11.85;39.52;101856.19;5262462;28;20029;-76
2022/03/05 15:21:23;;;;;;;37.55;25.35;;;;;;;11.84;40.51;101862.88;5244453;28;20102;-77
2022/03/05 15:23:54;;;;;;;35.00;26.02;;;;;;;11.92;40.72;101865.16;5241546;28;20029;-77
2022/03/05 15:26:25;;;;;;;35.00;26.40;;;;;;;11.82;39.76;101870.63;5258392;28;20091;-71
2022/03/05 15:28:57;;;;;;;37.97;27.80;;;;;;;11.85;39.49;101868.13;5253450;28;20049;-76
2022/03/05 15:31:30;;;;;;;37.65;27.83;;;;;;;11.85;39.66;101867.31;5253721;28;20016;-83
2022/03/05 15:34:02;;;;;;;35.50;24.33;;;;;;;11.96;39.81;101869.03;5263347;28;20407;-77
2022/03/05 15:36:33;;;;;;;32.95;24.48;;;;;;;12.03;41.90;101868.78;5261543;28;20017;-75
2022/03/05 15:39:05;;;;;;;27.55;18.90;;;;;;;12.12;46.14;101867.97;5245634;28;20079;-74
2022/03/05 15:41:37;;;;;;;43.05;30.27;;;;;;;11.96;39.96;101866.25;5243336;28;20036;-71
2022/03/05 15:44:11;;;;;;;41.72;27.90;;;;;;;11.72;39.35;101872.25;5260405;28;20037;-75
2022/03/05 15:46:42;;;;;;;38.67;26.42;;;;;;;11.63;39.29;101865.56;5259734;28;20029;-77
2022/03/05 15:49:16;;;;;;;36.63;25.65;;;;;;;11.66;40.48;101864.19;5250890;28;20055;-79
2022/03/05 15:51:48;;;;;;;37.45;27.63;;;;;;;11.32;39.63;101867.34;5261718;28;20032;-75
2022/03/05 15:54:19;;;;;;;36.45;26.17;;;;;;;11.41;40.67;101864.91;5261823;28;20025;-77
2022/03/05 15:56:50;;;;;;;36.67;26.92;;;;;;;11.28;39.30;101869.84;5261223;28;20029;-74
2022/03/05 15:59:23;;;;;;;38.30;27.08;;;;;;;11.09;39.13;101863.06;5253063;28;20049;-76
2022/03/05 16:01:54;;;;;;;36.80;26.45;;;;;;;10.95;40.30;101861.88;5241025;28;20026;-76
2022/03/05 16:04:26;;;;;;;37.88;26.40;;;;;;;10.80;41.30;101860.66;5240128;28;20068;-71
2022/03/05 16:06:57;;;;;;;36.42;26.92;;;;;;;10.57;42.38;101870.19;5241490;28;20037;-73
2022/03/05 16:09:29;;;;;;;38.65;27.50;;;;;;;10.61;42.94;101867.75;5241149;28;20389;-77
2022/03/05 16:12:00;;;;;;;41.00;29.67;;;;;;;10.59;42.80;101870.78;5240923;28;20421;-76
2022/03/05 16:14:32;;;;;;;37.45;27.48;;;;;;;10.37;44.00;101870.84;5241152;28;20045;-76
2022/03/05 16:17:03;;;;;;;39.40;30.40;;;;;;;10.44;43.83;101876.19;5254175;28;20045;-77
2022/03/05 16:19:35;;;;;;;42.00;28.65;;;;;;;10.40;44.28;101867.53;5263725;28;20040;-77
2022/03/05 16:22:06;;;;;;;40.10;28.45;;;;;;;10.21;44.30;101874.56;5248445;28;20099;-77
2022/03/05 16:24:37;;;;;;;36.38;27.30;;;;;;;10.19;44.48;101871.22;5244631;28;20095;-73
2022/03/05 16:27:09;;;;;;;38.30;26.85;;;;;;;10.22;44.13;101876.22;5265251;28;20025;-76
2022/03/05 16:29:40;;;;;;;36.95;28.15;;;;;;;10.22;44.46;101876.22;5257528;28;20359;-79
2022/03/05 16:32:11;;;;;;;40.50;28.30;;;;;;;9.89;44.30;101878.09;5244930;28;20488;-82
2022/03/05 16:34:43;;;;;;;37.25;27.63;;;;;;;10.00;44.94;101877.13;5247048;28;20033;-82
2022/03/05 16:37:16;;;;;;;39.90;29.13;;;;;;;9.97;45.40;101879.56;5245720;28;20066;-82
2022/03/05 16:39:48;;;;;;;38.40;29.83;;;;;;;9.79;45.58;101875.19;5252143;28;20033;-76
2022/03/05 16:42:19;;;;;;;106.00;78.72;;;;;;;9.88;45.95;101881.97;5265803;28;20017;-75
2022/03/05 16:44:50;;;;;;;39.63;29.42;;;;;;;9.75;45.67;101883.22;5253727;28;20124;-76
2022/03/05 16:47:22;;;;;;;35.88;27.17;;;;;;;9.55;45.18;101882.97;5244900;28;20021;-77
2022/03/05 16:49:53;;;;;;;38.58;27.33;;;;;;;9.61;45.11;101883.84;5248775;28;20043;-76
2022/03/05 16:52:24;;;;;;;40.65;28.90;;;;;;;9.32;45.67;101884.88;5265021;28;20131;-80
2022/03/05 16:54:56;;;;;;;40.53;27.92;;;;;;;9.38;46.34;101888.53;5265551;28;20020;-79
2022/03/05 16:57:27;;;;;;;38.17;27.50;;;;;;;9.38;46.20;101885.78;5252471;28;20041;-81
2022/03/05 17:00:02;;;;;;;39.33;27.45;;;;;;;9.38;46.27;101883.00;5244311;28;20495;-80
2022/03/05 17:02:33;;;;;;;40.45;28.80;;;;;;;9.27;46.59;101887.56;5244593;28;20032;-77
2022/03/05 17:05:06;;;;;;;43.55;28.45;;;;;;;9.20;46.95;101886.91;5244415;28;20476;-77
2022/03/05 17:07:38;;;;;;;39.08;28.70;;;;;;;9.20;47.09;101895.22;5254687;28;20025;-78
2022/03/05 17:10:11;;;;;;;38.78;27.20;;;;;;;9.25;47.45;101894.44;5265185;28;20032;-78
2022/03/05 17:12:46;;;;;;;40.00;27.90;;;;;;;9.20;47.28;101902.69;5265171;28;20025;-78
2022/03/05 17:15:19;;;;;;;40.28;28.45;;;;;;;9.10;48.05;101904.22;5263377;28;20096;-78
2022/03/05 17:17:50;;;;;;;38.72;27.85;;;;;;;9.07;48.06;101901.94;5244912;28;20460;-78
2022/03/05 17:20:21;;;;;;;38.40;27.92;;;;;;;9.01;48.42;101905.75;5243581;28;20151;-78
2022/03/05 17:22:53;;;;;;;41.78;27.75;;;;;;;8.99;48.77;101902.38;5244041;28;20551;-77
2022/03/05 17:25:25;;;;;;;38.10;26.25;;;;;;;9.01;49.22;101905.75;5244818;28;20488;-77
2022/03/05 17:27:57;;;;;;;40.53;26.05;;;;;;;8.98;48.61;101919.25;5243527;28;20033;-77
